createdAt,value
2022-11-17T00:00:03.271Z,100006.97
2022-11-17T00:02:29.733Z,100007.84
2022-11-17T00:04:56.105Z,100000.94
2022-11-17T00:07:22.404Z,99994.94
2022-11-17T00:09:48.837Z,99988.91
2022-11-17T00:12:33.655Z,99988.94
2022-11-17T00:15:00.100Z,99990.66
2022-11-17T00:17:26.448Z,99983.78
2022-11-17T00:20:11.508Z,99982.03
2022-11-17T00:22:37.770Z,99981.19
2022-11-17T00:25:04.302Z,99971.75
2022-11-17T00:27:30.602Z,99982.91
2022-11-17T00:29:56.929Z,99967.47
2022-11-17T00:32:41.980Z,99976.06
2022-11-17T00:35:08.503Z,99971.75
2022-11-17T00:37:37.928Z,99974.38
2022-11-17T00:40:05.573Z,99977.81
2022-11-17T00:42:31.836Z,99976.91
2022-11-17T00:44:58.101Z,99976.06
2022-11-17T00:47:24.394Z,99967.50
2022-11-17T00:49:50.700Z,99965.78
2022-11-17T00:52:16.973Z,99964.94
2022-11-17T00:54:43.313Z,99961.53
2022-11-17T00:57:09.596Z,99963.25
2022-11-17T00:59:35.869Z,99947.78
2022-11-17T01:02:02.184Z,99951.22
2022-11-17T01:04:28.485Z,99934.94
2022-11-17T01:06:54.892Z,99939.22
2022-11-17T01:09:23.670Z,99925.47
2022-11-17T01:11:51.900Z,99925.50
2022-11-17T01:14:21.500Z,99935.84
2022-11-17T01:16:47.907Z,99925.50
2022-11-17T01:19:15.442Z,99927.25
2022-11-17T01:21:41.975Z,99919.53
2022-11-17T01:24:11.343Z,99916.09
2022-11-17T01:26:38.906Z,99907.53
2022-11-17T01:29:06.411Z,99910.09
2022-11-17T01:31:35.419Z,99915.25
2022-11-17T01:34:02.185Z,99916.09
2022-11-17T01:36:31.374Z,99904.94
2022-11-17T01:38:57.671Z,99922.16
2022-11-17T01:41:26.836Z,99912.69
2022-11-17T01:43:56.522Z,99915.25
2022-11-17T01:46:28.726Z,99907.53
2022-11-17T01:49:00.560Z,99908.38
2022-11-17T01:51:29.213Z,99892.06
2022-11-17T01:53:55.515Z,99888.66
2022-11-17T01:56:27.728Z,99884.34
2022-11-17T01:59:20.939Z,99884.31
2022-11-17T02:01:57.492Z,99872.31
2022-11-17T02:04:27.764Z,99881.78
2022-11-17T02:07:01.824Z,99878.34
2022-11-17T02:09:28.767Z,99874.91
2022-11-17T02:11:58.578Z,99878.34
2022-11-17T02:14:25.051Z,99871.50
2022-11-17T02:16:51.420Z,99871.50
2022-11-17T02:19:20.989Z,99857.75
2022-11-17T02:22:26.594Z,99853.44
2022-11-17T02:25:35.299Z,99852.63
2022-11-17T02:28:20.463Z,99842.31
2022-11-17T02:30:55.975Z,99839.75
2022-11-17T02:34:04.429Z,99839.78
2022-11-17T02:36:41.764Z,99837.22
2022-11-17T02:39:26.137Z,99838.06
2022-11-17T02:41:58.189Z,99843.25
2022-11-17T02:44:37.396Z,99838.94
2022-11-17T02:47:09.829Z,99832.91
2022-11-17T02:49:39.006Z,99827.78
2022-11-17T02:52:07.871Z,99839.81
2022-11-17T02:54:34.217Z,99832.06
2022-11-17T02:57:00.999Z,99822.59
2022-11-17T02:59:36.958Z,99825.19
2022-11-17T03:02:32.214Z,99820.06
2022-11-17T03:05:12.532Z,99825.22
2022-11-17T03:07:58.327Z,99813.19
2022-11-17T03:10:40.855Z,99820.09
2022-11-17T03:13:37.008Z,99807.22
2022-11-17T03:16:09.661Z,99806.38
2022-11-17T03:18:51.656Z,99808.09
2022-11-17T03:21:34.763Z,99796.06
2022-11-17T03:24:05.617Z,99800.38
2022-11-17T03:26:35.694Z,99803.81
2022-11-17T03:29:06.575Z,99802.09
2022-11-17T03:31:35.021Z,99791.78
2022-11-17T03:34:04.981Z,99793.47
2022-11-17T03:36:35.394Z,99791.78
2022-11-17T03:39:23.838Z,99782.34
2022-11-17T03:41:55.102Z,99786.66
2022-11-17T03:44:24.709Z,99784.94
2022-11-17T03:46:54.816Z,99780.66
2022-11-17T03:49:30.218Z,99775.50
2022-11-17T03:51:57.227Z,99773.75
2022-11-17T03:54:24.427Z,99773.78
2022-11-17T03:56:53.808Z,99775.50
2022-11-17T03:59:36.956Z,99772.94
2022-11-17T04:02:03.563Z,99770.38
2022-11-17T04:04:49.914Z,99763.50
2022-11-17T04:07:16.305Z,99771.22
2022-11-17T04:09:42.641Z,99772.06
2022-11-17T04:12:27.595Z,99751.47
2022-11-17T04:15:12.588Z,99756.63
2022-11-17T04:17:39.162Z,99757.50
2022-11-17T04:20:06.095Z,99758.31
2022-11-17T04:22:32.383Z,99746.34
2022-11-17T04:24:58.657Z,99756.63
2022-11-17T04:27:43.693Z,99750.63
2022-11-17T04:30:10.772Z,99738.59
2022-11-17T04:32:37.114Z,99742.03
2022-11-17T04:35:03.562Z,99739.44
2022-11-17T04:37:29.896Z,99735.16
2022-11-17T04:39:56.197Z,99736.88
2022-11-17T04:42:22.499Z,99725.75
2022-11-17T04:44:48.762Z,99719.75
2022-11-17T04:47:15.068Z,99722.34
2022-11-17T04:49:41.376Z,99714.53
2022-11-17T04:52:07.808Z,99702.63
2022-11-17T04:54:34.088Z,99706.06
2022-11-17T04:57:00.377Z,99702.63
2022-11-17T04:59:26.680Z,99698.38
2022-11-17T05:01:53.015Z,99697.50
2022-11-17T05:04:39.482Z,99697.50
2022-11-17T05:07:06.860Z,99700.06
2022-11-17T05:09:33.291Z,99690.63
2022-11-17T05:12:18.317Z,99694.06
2022-11-17T05:14:47.114Z,99679.50
2022-11-17T05:17:13.409Z,99679.53
2022-11-17T05:19:44.099Z,99691.53
2022-11-17T05:22:38.706Z,99688.06
2022-11-17T05:25:06.020Z,99694.94
2022-11-17T05:27:33.801Z,99699.25
2022-11-17T05:30:04.557Z,99694.09
2022-11-17T05:32:30.846Z,99696.66
2022-11-17T05:34:57.132Z,99699.25
2022-11-17T05:37:23.447Z,99695.81
2022-11-17T05:39:49.748Z,99708.69
2022-11-17T05:42:16.033Z,99704.41
2022-11-17T05:44:42.378Z,99693.19
2022-11-17T05:47:08.693Z,99702.63
2022-11-17T05:49:35.033Z,99688.09
2022-11-17T05:52:01.341Z,99694.94
2022-11-17T05:54:27.709Z,99710.38
2022-11-17T05:57:04.363Z,99701.78
2022-11-17T06:00:04.529Z,99702.63
2022-11-17T06:02:54.736Z,99693.22
2022-11-17T06:05:23.771Z,99686.34
2022-11-17T06:07:50.999Z,99691.53
2022-11-17T06:10:17.530Z,99686.38
2022-11-17T06:12:43.903Z,99688.09
2022-11-17T06:15:10.426Z,99685.50
2022-11-17T06:17:42.886Z,99686.38
2022-11-17T06:20:18.578Z,99697.50
2022-11-17T06:22:48.353Z,99685.50
2022-11-17T06:25:16.951Z,99670.94
2022-11-17T06:27:43.621Z,99682.09
2022-11-17T06:30:10.508Z,99682.97
2022-11-17T06:32:40.086Z,99674.41
2022-11-17T06:35:08.557Z,99669.25
2022-11-17T06:37:34.842Z,99668.41
2022-11-17T06:40:01.216Z,99679.56
2022-11-17T06:42:46.132Z,99671.84
2022-11-17T06:45:12.510Z,99667.53
2022-11-17T06:47:39.037Z,99665.00
2022-11-17T06:50:05.653Z,99680.44
2022-11-17T06:52:31.961Z,99678.69
2022-11-17T06:54:58.254Z,99676.13
2022-11-17T06:57:24.641Z,99666.66
2022-11-17T06:59:52.442Z,99666.66
2022-11-17T07:02:18.794Z,99651.25
2022-11-17T07:04:45.297Z,99657.25
2022-11-17T07:07:12.876Z,99640.09
2022-11-17T07:09:39.199Z,99653.88
2022-11-17T07:12:05.541Z,99643.59
2022-11-17T07:14:31.825Z,99659.88
2022-11-17T07:16:58.221Z,99649.59
2022-11-17T07:19:24.508Z,99657.28
2022-11-17T07:21:50.807Z,99665.00
2022-11-17T07:24:17.082Z,99656.41
2022-11-17T07:26:43.403Z,99652.94
2022-11-17T07:29:09.673Z,99655.53
2022-11-17T07:31:36.845Z,99651.22
2022-11-17T07:34:03.167Z,99657.22
2022-11-17T07:36:29.455Z,99652.94
2022-11-17T07:38:55.787Z,99663.22
2022-11-17T07:41:22.063Z,99669.22
2022-11-17T07:43:48.343Z,99664.94
2022-11-17T07:46:15.106Z,99655.53
2022-11-17T07:48:42.997Z,99664.09
2022-11-17T07:51:09.814Z,99665.81
2022-11-17T07:53:36.419Z,99664.13
2022-11-17T07:56:07.418Z,99653.78
2022-11-17T07:58:34.494Z,99660.66
2022-11-17T08:01:08.990Z,99665.81
2022-11-17T08:03:35.658Z,99659.81
2022-11-17T08:06:03.348Z,99656.41
2022-11-17T08:08:29.658Z,99657.25
2022-11-17T08:10:55.985Z,99663.28
2022-11-17T08:13:24.124Z,99652.97
2022-11-17T08:15:56.711Z,99656.44
2022-11-17T08:18:23.256Z,99654.72
2022-11-17T08:20:49.517Z,99658.13
2022-11-17T08:23:15.841Z,99654.72
2022-11-17T08:25:42.141Z,99645.25
2022-11-17T08:28:08.457Z,99654.69
2022-11-17T08:30:35.778Z,99642.66
2022-11-17T08:33:02.174Z,99644.41
2022-11-17T08:35:31.832Z,99639.22
2022-11-17T08:38:02.157Z,99641.81
2022-11-17T08:40:28.841Z,99643.50
2022-11-17T08:43:00.661Z,99643.50
2022-11-17T08:45:27.393Z,99653.72
2022-11-17T08:47:55.338Z,99638.31
2022-11-17T08:50:22.130Z,99634.91
2022-11-17T08:52:48.467Z,99635.72
2022-11-17T08:55:14.900Z,99634.00
2022-11-17T08:57:41.225Z,99635.72
2022-11-17T09:00:08.279Z,99624.59
2022-11-17T09:02:34.615Z,99628.00
2022-11-17T09:05:00.868Z,99615.97
2022-11-17T09:07:32.021Z,99627.13
2022-11-17T09:10:01.276Z,99628.78
2022-11-17T09:12:27.892Z,99641.66
2022-11-17T09:14:54.173Z,99631.38
2022-11-17T09:17:20.453Z,99628.78
2022-11-17T09:19:46.762Z,99627.88
2022-11-17T09:22:13.055Z,99621.03
2022-11-17T09:24:39.326Z,99622.69
2022-11-17T09:27:05.595Z,99620.16
2022-11-17T09:29:32.022Z,99612.41
2022-11-17T09:31:58.300Z,99621.84
2022-11-17T09:34:25.048Z,99602.97
2022-11-17T09:36:51.361Z,99619.25
2022-11-17T09:39:17.660Z,99614.94
2022-11-17T09:41:46.588Z,99617.47
2022-11-17T09:44:31.270Z,99618.31
2022-11-17T09:47:19.131Z,99611.44
2022-11-17T09:49:58.100Z,99601.94
2022-11-17T09:53:11.235Z,99615.66
2022-11-17T09:55:43.313Z,99604.53
2022-11-17T09:58:21.569Z,99599.41
2022-11-17T10:00:50.146Z,99588.22
2022-11-17T10:03:22.634Z,99592.47
2022-11-17T10:05:50.279Z,99590.72
2022-11-17T10:08:20.290Z,99598.44
2022-11-17T10:10:51.554Z,99597.56
2022-11-17T10:13:30.542Z,99596.72
2022-11-17T10:16:03.799Z,99586.41
2022-11-17T10:18:38.278Z,99595.00
2022-11-17T10:21:06.645Z,99600.97
2022-11-17T10:23:39.802Z,99589.78
2022-11-17T10:26:12.375Z,99590.63
2022-11-17T10:28:39.256Z,99587.22
2022-11-17T10:31:19.475Z,99586.28
2022-11-17T10:33:48.340Z,99578.63
2022-11-17T10:36:28.687Z,99581.97
2022-11-17T10:38:57.319Z,99589.78
2022-11-17T10:41:38.531Z,99576.84
2022-11-17T10:44:21.671Z,99572.53
2022-11-17T10:47:00.566Z,99575.03
2022-11-17T10:49:34.652Z,99567.41
2022-11-17T10:52:18.160Z,99563.94
2022-11-17T10:54:44.737Z,99561.34
2022-11-17T10:57:21.556Z,99561.34
2022-11-17T10:59:56.840Z,99570.72
2022-11-17T11:02:33.679Z,99560.50
2022-11-17T11:05:14.997Z,99572.50
2022-11-17T11:07:41.530Z,99558.72
2022-11-17T11:10:23.661Z,99554.41
2022-11-17T11:12:56.598Z,99549.31
2022-11-17T11:15:24.989Z,99541.59
2022-11-17T11:17:51.915Z,99545.00
2022-11-17T11:20:23.846Z,99558.72
2022-11-17T11:23:02.433Z,99529.50
2022-11-17T11:25:40.976Z,99529.44
2022-11-17T11:28:10.069Z,99529.44
2022-11-17T11:30:45.554Z,99529.41
2022-11-17T11:33:36.473Z,99531.94
2022-11-17T11:36:19.410Z,99527.66
2022-11-17T11:38:51.304Z,99506.19
2022-11-17T11:41:32.798Z,99519.94
2022-11-17T11:44:02.111Z,99521.69
2022-11-17T11:46:45.257Z,99524.22
2022-11-17T11:49:36.739Z,99522.44
2022-11-17T11:52:06.202Z,99527.66
2022-11-17T11:54:50.802Z,99538.97
2022-11-17T11:57:22.929Z,99536.34
2022-11-17T12:00:00.908Z,99531.25
2022-11-17T12:02:54.358Z,99527.00
2022-11-17T12:05:23.809Z,99524.47
2022-11-17T12:08:10.327Z,99527.03
2022-11-17T12:10:53.536Z,99533.03
2022-11-17T12:13:23.805Z,99525.31
2022-11-17T12:15:50.523Z,99531.34
2022-11-17T12:18:16.818Z,99530.56
2022-11-17T12:21:18.316Z,99539.13
2022-11-17T12:24:09.796Z,99531.41
2022-11-17T12:26:36.591Z,99531.44
2022-11-17T12:29:21.304Z,99530.63
2022-11-17T12:31:49.711Z,99533.22
2022-11-17T12:34:33.562Z,99528.91
2022-11-17T12:37:12.755Z,99536.66
2022-11-17T12:40:47.108Z,99539.25
2022-11-17T12:43:16.303Z,99535.81
2022-11-17T12:46:18.897Z,99540.13
2022-11-17T12:49:17.098Z,99553.00
2022-11-17T12:51:57.423Z,99543.59
2022-11-17T12:54:54.490Z,99550.47
2022-11-17T12:57:26.838Z,99549.63
2022-11-17T13:00:05.757Z,99557.38
2022-11-17T13:02:47.001Z,99553.97
2022-11-17T13:05:19.629Z,99561.69
2022-11-17T13:07:45.997Z,99555.69
2022-11-17T13:10:27.782Z,99562.59
2022-11-17T13:13:19.381Z,99554.94
2022-11-17T13:15:51.190Z,99566.91
2022-11-17T13:18:31.653Z,99560.91
2022-11-17T13:20:58.444Z,99561.75
2022-11-17T13:23:32.609Z,99575.50
2022-11-17T13:26:19.859Z,99559.25
2022-11-17T13:28:47.257Z,99567.03
2022-11-17T13:31:18.992Z,99563.56
2022-11-17T13:34:00.633Z,99561.88
2022-11-17T13:36:27.192Z,99569.59
2022-11-17T13:38:57.224Z,99569.63
2022-11-17T13:41:25.593Z,99568.81
2022-11-17T13:43:53.065Z,99577.34
2022-11-17T13:46:19.560Z,99572.22
2022-11-17T13:48:48.203Z,99570.56
2022-11-17T13:51:20.442Z,99571.41
2022-11-17T13:53:54.391Z,99574.88
2022-11-17T13:56:29.627Z,99567.16
2022-11-17T13:58:56.819Z,99574.84
2022-11-17T14:01:31.259Z,99573.16
2022-11-17T14:04:22.745Z,99572.28
2022-11-17T14:06:57.174Z,99573.97
2022-11-17T14:09:24.673Z,99572.31
2022-11-17T14:11:51.540Z,99570.63
2022-11-17T14:14:40.294Z,99579.19
2022-11-17T14:17:21.226Z,99574.00
2022-11-17T14:19:48.347Z,99581.75
2022-11-17T14:22:21.524Z,99581.78
2022-11-17T14:24:50.779Z,99586.06
2022-11-17T14:27:29.620Z,99586.94
2022-11-17T14:29:55.891Z,99592.91
2022-11-17T14:32:22.161Z,99586.94
2022-11-17T14:34:48.445Z,99583.47
2022-11-17T14:37:14.742Z,99586.94
2022-11-17T14:39:41.022Z,99591.22
2022-11-17T14:42:10.982Z,99583.50
2022-11-17T14:44:37.333Z,99592.06
2022-11-17T14:47:03.655Z,99592.91
2022-11-17T14:49:29.910Z,99599.81
2022-11-17T14:51:58.930Z,99590.34
2022-11-17T14:54:25.446Z,99586.06
2022-11-17T14:56:51.733Z,99592.09
2022-11-17T14:59:18.391Z,99599.78
2022-11-17T15:01:44.994Z,99602.41
2022-11-17T15:04:48.442Z,99597.25
2022-11-17T15:07:02.614Z,99596.38
2022-11-17T15:09:29.059Z,99598.09
2022-11-17T15:11:55.374Z,99602.38
2022-11-17T15:14:21.985Z,99616.06
2022-11-17T15:16:48.292Z,99612.69
2022-11-17T15:19:14.594Z,99608.38
2022-11-17T15:21:41.276Z,99608.38
2022-11-17T15:24:09.269Z,99609.25
2022-11-17T15:26:35.685Z,99610.09
2022-11-17T15:29:02.014Z,99608.38
2022-11-17T15:31:28.309Z,99608.38
2022-11-17T15:33:54.600Z,99601.53
2022-11-17T15:36:22.765Z,99611.00
2022-11-17T15:38:49.698Z,99603.25
2022-11-17T15:41:16.361Z,99617.84
2022-11-17T15:43:44.297Z,99611.81
2022-11-17T15:46:16.295Z,99616.97
2022-11-17T15:48:44.818Z,99622.97
2022-11-17T15:51:16.346Z,99623.81
2022-11-17T15:53:44.592Z,99624.66
2022-11-17T15:56:13.555Z,99623.84
2022-11-17T15:58:41.351Z,99628.97
2022-11-17T16:01:16.165Z,99622.09
2022-11-17T16:03:44.722Z,99625.53
2022-11-17T16:06:12.055Z,99628.97
2022-11-17T16:08:39.047Z,99630.66
2022-11-17T16:11:06.120Z,99634.09
2022-11-17T16:13:33.113Z,99628.09
2022-11-17T16:15:59.641Z,99622.09
2022-11-17T16:18:26.126Z,99633.28
2022-11-17T16:20:52.547Z,99629.81
2022-11-17T16:23:19.347Z,99630.69
2022-11-17T16:25:48.343Z,99633.28
2022-11-17T16:28:16.513Z,99630.69
2022-11-17T16:30:42.891Z,99638.41
2022-11-17T16:33:14.474Z,99632.41
2022-11-17T16:35:41.345Z,99634.97
2022-11-17T16:38:12.589Z,99634.13
2022-11-17T16:40:39.605Z,99630.72
2022-11-17T16:43:06.016Z,99640.13
2022-11-17T16:45:42.552Z,99635.00
2022-11-17T16:48:09.052Z,99633.28
2022-11-17T16:50:40.117Z,99634.16
2022-11-17T16:53:06.452Z,99636.75
2022-11-17T16:55:35.096Z,99638.44
2022-11-17T16:58:03.404Z,99634.19
2022-11-17T17:00:30.052Z,99641.00
2022-11-17T17:02:57.012Z,99635.00
2022-11-17T17:05:24.936Z,99635.03
2022-11-17T17:07:51.361Z,99638.47
2022-11-17T17:10:17.693Z,99642.75
2022-11-17T17:12:44.011Z,99641.88
2022-11-17T17:15:10.487Z,99645.28
2022-11-17T17:17:36.824Z,99648.75
2022-11-17T17:20:03.260Z,99653.06
2022-11-17T17:22:29.564Z,99651.31
2022-11-17T17:24:55.834Z,99656.47
2022-11-17T17:27:22.137Z,99662.44
2022-11-17T17:29:48.491Z,99659.91
2022-11-17T17:32:15.093Z,99659.00
2022-11-17T17:34:41.439Z,99665.91
2022-11-17T17:37:07.803Z,99663.31
2022-11-17T17:39:34.276Z,99666.78
2022-11-17T17:42:00.557Z,99666.75
2022-11-17T17:44:26.842Z,99662.47
2022-11-17T17:46:53.256Z,99669.31
2022-11-17T17:49:19.920Z,99670.22
2022-11-17T17:51:47.066Z,99666.78
2022-11-17T17:54:18.378Z,99672.78
2022-11-17T17:56:45.243Z,99674.50
2022-11-17T17:59:13.172Z,99679.63
2022-11-17T18:01:42.341Z,99682.19
2022-11-17T18:04:12.654Z,99686.53
2022-11-17T18:06:45.775Z,99684.78
2022-11-17T18:09:14.355Z,99682.22
2022-11-17T18:11:49.261Z,99684.78
2022-11-17T18:14:17.405Z,99689.06
2022-11-17T18:16:43.698Z,99689.91
2022-11-17T18:19:14.129Z,99699.34
2022-11-17T18:21:40.747Z,99701.97
2022-11-17T18:24:07.213Z,99701.09
2022-11-17T18:26:35.434Z,99687.34
2022-11-17T18:29:07.155Z,99701.09
2022-11-17T18:31:36.067Z,99692.53
2022-11-17T18:34:05.776Z,99700.25
2022-11-17T18:36:32.212Z,99699.41
2022-11-17T18:38:58.838Z,99714.81
2022-11-17T18:41:26.045Z,99707.97
2022-11-17T18:43:52.525Z,99700.25
2022-11-17T18:46:21.562Z,99700.25
2022-11-17T18:48:50.753Z,99702.00
2022-11-17T18:51:20.869Z,99701.97
2022-11-17T18:53:52.686Z,99702.81
2022-11-17T18:56:21.455Z,99699.41
2022-11-17T18:58:48.198Z,99701.13
2022-11-17T19:01:22.638Z,99708.84
2022-11-17T19:03:52.051Z,99706.25
2022-11-17T19:06:20.349Z,99719.97
2022-11-17T19:08:47.965Z,99714.84
2022-11-17T19:11:16.539Z,99726.84
2022-11-17T19:13:43.380Z,99715.69
2022-11-17T19:16:18.620Z,99726.84
2022-11-17T19:18:47.065Z,99728.56
2022-11-17T19:21:18.750Z,99721.72
2022-11-17T19:23:51.537Z,99728.56
2022-11-17T19:26:40.354Z,99738.00
2022-11-17T19:29:15.944Z,99731.13
2022-11-17T19:31:43.237Z,99735.44
2022-11-17T19:34:09.657Z,99737.13
2022-11-17T19:36:36.006Z,99737.16
2022-11-17T19:39:03.278Z,99744.84
2022-11-17T19:41:34.833Z,99746.56
2022-11-17T19:44:03.897Z,99740.56
2022-11-17T19:46:31.327Z,99749.97
2022-11-17T19:48:58.378Z,99749.13
2022-11-17T19:51:32.661Z,99751.69
2022-11-17T19:54:02.336Z,99751.69
2022-11-17T19:56:30.564Z,99759.41
2022-11-17T19:58:57.830Z,99753.38
2022-11-17T20:01:26.841Z,99757.69
2022-11-17T20:03:53.955Z,99764.53
2022-11-17T20:06:23.679Z,99767.09
2022-11-17T20:08:50.204Z,99761.09
2022-11-17T20:11:18.713Z,99768.81
2022-11-17T20:13:45.359Z,99771.34
2022-11-17T20:16:17.634Z,99773.06
2022-11-17T20:18:45.146Z,99769.63
2022-11-17T20:21:13.782Z,99783.34
2022-11-17T20:23:40.818Z,99784.22
2022-11-17T20:26:27.574Z,99781.59
2022-11-17T20:28:54.201Z,99787.59
2022-11-17T20:31:30.405Z,99782.47
2022-11-17T20:34:00.173Z,99782.47
2022-11-17T20:36:27.870Z,99789.31
2022-11-17T20:38:56.571Z,99782.41
2022-11-17T20:41:24.271Z,99791.00
2022-11-17T20:43:52.647Z,99792.72
2022-11-17T20:46:19.882Z,99792.72
2022-11-17T20:48:46.554Z,99797.84
2022-11-17T20:51:16.099Z,99794.44
2022-11-17T20:53:43.028Z,99794.44
2022-11-17T20:56:11.398Z,99796.09
2022-11-17T20:58:38.224Z,99803.84
2022-11-17T21:01:18.429Z,99795.25
2022-11-17T21:03:48.041Z,99811.47
2022-11-17T21:06:15.717Z,99812.34
2022-11-17T21:08:43.659Z,99808.06
2022-11-17T21:11:38.098Z,99807.19
2022-11-17T21:14:05.929Z,99810.59
2022-11-17T21:16:33.409Z,99815.72
2022-11-17T21:18:59.808Z,99814.84
2022-11-17T21:21:26.410Z,99813.97
2022-11-17T21:23:54.388Z,99818.31
2022-11-17T21:26:22.705Z,99814.00
2022-11-17T21:28:49.571Z,99819.13
2022-11-17T21:31:23.893Z,99821.69
2022-11-17T21:33:54.607Z,99819.97
2022-11-17T21:36:22.580Z,99820.88
2022-11-17T21:38:49.429Z,99825.16
2022-11-17T21:41:18.746Z,99818.31
2022-11-17T21:43:47.718Z,99824.28
2022-11-17T21:46:19.417Z,99817.44
2022-11-17T21:48:46.428Z,99818.34
2022-11-17T21:51:24.191Z,99820.03
2022-11-17T21:53:55.212Z,99827.78
2022-11-17T21:56:21.674Z,99832.94
2022-11-17T21:58:47.939Z,99838.91
2022-11-17T22:01:15.708Z,99832.91
2022-11-17T22:03:42.858Z,99838.00
2022-11-17T22:06:14.588Z,99842.28
2022-11-17T22:08:42.604Z,99842.28
2022-11-17T22:11:11.383Z,99849.13
2022-11-17T22:13:38.431Z,99837.13
2022-11-17T22:16:12.861Z,99842.25
2022-11-17T22:18:40.163Z,99840.56
2022-11-17T22:21:07.804Z,99842.28
2022-11-17T22:23:34.704Z,99846.56
2022-11-17T22:26:03.539Z,99847.41
2022-11-17T22:28:30.024Z,99853.44
2022-11-17T22:30:56.829Z,99861.16
2022-11-17T22:33:23.517Z,99864.53
2022-11-17T22:35:50.122Z,99866.25
2022-11-17T22:38:16.971Z,99867.16
2022-11-17T22:40:43.300Z,99867.97
2022-11-17T22:43:14.709Z,99873.09
2022-11-17T22:45:41.694Z,99884.19
2022-11-17T22:48:08.266Z,99884.16
2022-11-17T22:50:35.427Z,99870.47
2022-11-17T22:53:01.737Z,99885.88
2022-11-17T22:55:28.016Z,99883.28
2022-11-17T22:57:54.378Z,99885.00
2022-11-17T23:00:21.222Z,99888.34
2022-11-17T23:02:47.598Z,99886.63
2022-11-17T23:05:13.906Z,99889.19
2022-11-17T23:07:40.520Z,99891.72
2022-11-17T23:10:07.126Z,99894.28
2022-11-17T23:12:33.430Z,99904.56
2022-11-17T23:14:59.745Z,99896.81
2022-11-17T23:17:26.086Z,99901.09
2022-11-17T23:19:52.619Z,99903.66
2022-11-17T23:22:19.291Z,99907.09
2022-11-17T23:24:45.576Z,99902.78
2022-11-17T23:27:12.315Z,99906.16
2022-11-17T23:29:38.604Z,99911.28
2022-11-17T23:32:05.203Z,99914.66
2022-11-17T23:34:31.549Z,99917.22
2022-11-17T23:37:03.317Z,99911.16
2022-11-17T23:39:30.169Z,99909.44
2022-11-17T23:41:56.445Z,99909.44
2022-11-17T23:44:22.779Z,99916.25
2022-11-17T23:46:49.113Z,99920.50
2022-11-17T23:49:15.638Z,99919.59
2022-11-17T23:51:42.083Z,99917.91
2022-11-17T23:54:11.951Z,99917.06
2022-11-17T23:56:38.855Z,99921.31
2022-11-17T23:59:05.833Z,99926.44
